Friendship, Maryland
Current Conditions -  °F | °C
As of 8:58 AM on Monday 20 Oct 2014 (Local Time) from KADW Reporting Station
Clear Clear  
Wind Chill: 47°   Ceiling: Unl
Heat Index: 50°   Visibility: 10mi
Dew Point: 40°   Wind: 6mph
Humidity: 71%   Direction: 190°S
Pressure: 30.13"   Gusts: NA
Location:  38.74°N, 76.59°W
Report Text: KADW 201258Z AUTO 19005KT 10SM CLR 10/05 A3013 RMK AO2 SLP210 T00980047 $
Loading
Personal Weather Stations






























Interactive Weather Map
Tropical Storm Tracking
New forecast layout! Learn more

10-Day Weather Forecast

Advertisements
Track Severe Weather on mobile